createdAt,value
2022-09-06T00:00:17.070Z,3.60
2022-09-06T00:02:45.168Z,3.57
2022-09-06T00:05:13.601Z,3.80
2022-09-06T00:07:41.155Z,3.83
2022-09-06T00:10:08.653Z,4.80
2022-09-06T00:12:36.299Z,4.90
2022-09-06T00:15:04.697Z,4.40
2022-09-06T00:17:33.242Z,4.30
2022-09-06T00:20:00.302Z,5.20
2022-09-06T00:22:28.205Z,4.37
2022-09-06T00:24:55.142Z,4.47
2022-09-06T00:27:22.469Z,4.77
2022-09-06T00:29:49.379Z,5.07
2022-09-06T00:32:17.308Z,5.00
2022-09-06T00:34:44.216Z,4.60
2022-09-06T00:37:11.161Z,5.03
2022-09-06T00:39:38.118Z,5.07
2022-09-06T00:42:09.494Z,5.13
2022-09-06T00:44:37.138Z,4.80
2022-09-06T00:47:05.583Z,5.23
2022-09-06T00:49:38.575Z,5.50
2022-09-06T00:52:09.857Z,5.53
2022-09-06T00:54:37.136Z,4.50
2022-09-06T00:57:04.668Z,4.87
2022-09-06T00:59:35.903Z,5.00
2022-09-06T01:02:03.165Z,5.27
2022-09-06T01:04:30.231Z,4.93
2022-09-06T01:07:18.698Z,4.83
2022-09-06T01:10:13.855Z,4.47
2022-09-06T01:12:59.165Z,4.83
2022-09-06T01:15:28.812Z,4.80
2022-09-06T01:18:21.274Z,4.93
2022-09-06T01:21:27.271Z,4.80
2022-09-06T01:24:01.509Z,5.13
2022-09-06T01:26:56.212Z,4.77
2022-09-06T01:29:23.160Z,4.97
2022-09-06T01:31:56.931Z,5.30
2022-09-06T01:34:47.839Z,3.97
2022-09-06T01:37:17.908Z,4.57
2022-09-06T01:39:44.844Z,4.47
2022-09-06T01:42:30.992Z,4.23
2022-09-06T01:45:04.304Z,3.73
2022-09-06T01:48:13.138Z,4.67
2022-09-06T01:51:01.285Z,4.43
2022-09-06T01:53:55.519Z,4.73
2022-09-06T01:56:56.547Z,4.70
2022-09-06T01:59:41.559Z,4.43
2022-09-06T02:02:49.112Z,4.73
2022-09-06T02:05:29.560Z,4.80
2022-09-06T02:08:07.029Z,5.27
2022-09-06T02:10:58.175Z,5.30
2022-09-06T02:13:30.592Z,5.40
2022-09-06T02:16:02.680Z,5.57
2022-09-06T02:18:51.585Z,5.63
2022-09-06T02:21:25.195Z,5.43
2022-09-06T02:23:54.797Z,5.73
2022-09-06T02:26:28.288Z,5.33
2022-09-06T02:28:56.047Z,5.43
2022-09-06T02:31:31.529Z,5.13
2022-09-06T02:33:59.092Z,5.37
2022-09-06T02:36:26.424Z,5.57
2022-09-06T02:38:55.000Z,6.13
2022-09-06T02:41:24.306Z,5.57
2022-09-06T02:43:52.226Z,5.77
2022-09-06T02:46:19.175Z,5.80
2022-09-06T02:48:46.956Z,5.70
2022-09-06T02:51:14.049Z,5.83
2022-09-06T02:53:41.113Z,6.17
2022-09-06T02:56:08.369Z,6.17
2022-09-06T02:58:35.643Z,6.40
2022-09-06T03:01:02.592Z,6.57
2022-09-06T03:03:29.781Z,5.60
2022-09-06T03:05:57.081Z,5.43
2022-09-06T03:08:26.550Z,5.50
2022-09-06T03:10:56.275Z,5.80
2022-09-06T03:13:26.628Z,4.30
2022-09-06T03:15:56.348Z,5.33
2022-09-06T03:18:28.453Z,6.27
2022-09-06T03:20:56.891Z,5.00
2022-09-06T03:23:26.946Z,5.87
2022-09-06T03:25:54.616Z,5.50
2022-09-06T03:28:23.596Z,4.90
2022-09-06T03:30:52.062Z,6.00
2022-09-06T03:33:20.394Z,6.57
2022-09-06T03:35:53.593Z,6.60
2022-09-06T03:38:21.302Z,6.07
2022-09-06T03:40:49.729Z,5.77
2022-09-06T03:43:18.584Z,5.43
2022-09-06T03:45:50.179Z,6.13
2022-09-06T03:48:18.365Z,5.80
2022-09-06T03:50:47.016Z,5.70
2022-09-06T03:53:15.203Z,5.70
2022-09-06T03:55:45.330Z,6.30
2022-09-06T03:58:12.346Z,6.30
2022-09-06T04:00:39.506Z,6.70
2022-09-06T04:03:06.403Z,5.90
2022-09-06T04:05:33.436Z,6.70
2022-09-06T04:08:00.383Z,7.60
2022-09-06T04:10:27.289Z,6.83
2022-09-06T04:12:54.553Z,6.50
2022-09-06T04:15:21.423Z,6.70
2022-09-06T04:17:48.375Z,6.77
2022-09-06T04:20:16.135Z,7.07
2022-09-06T04:22:43.072Z,8.07
2022-09-06T04:25:10.667Z,7.30
2022-09-06T04:27:37.572Z,7.97
2022-09-06T04:30:05.015Z,7.00
2022-09-06T04:32:32.771Z,8.87
2022-09-06T04:34:59.718Z,8.07
2022-09-06T04:37:26.711Z,9.10
2022-09-06T04:39:54.277Z,9.03
2022-09-06T04:42:21.319Z,10.27
2022-09-06T04:44:48.199Z,9.17
2022-09-06T04:47:16.313Z,9.23
2022-09-06T04:49:43.287Z,10.20
2022-09-06T04:52:11.335Z,9.90
2022-09-06T04:54:38.464Z,10.13
2022-09-06T04:57:05.779Z,10.30
2022-09-06T04:59:32.961Z,11.37
2022-09-06T05:02:00.026Z,12.50
2022-09-06T05:04:27.048Z,12.87
2022-09-06T05:07:02.196Z,13.23
2022-09-06T05:09:29.199Z,12.47
2022-09-06T05:11:56.292Z,12.63
2022-09-06T05:14:23.377Z,12.80
2022-09-06T05:16:50.585Z,12.93
2022-09-06T05:19:19.235Z,13.07
2022-09-06T05:21:46.532Z,12.67
2022-09-06T05:24:13.804Z,14.40
2022-09-06T05:26:40.736Z,12.57
2022-09-06T05:29:07.640Z,13.47
2022-09-06T05:31:36.275Z,13.60
2022-09-06T05:34:04.198Z,12.80
2022-09-06T05:36:31.735Z,12.80
2022-09-06T05:38:59.604Z,12.27
2022-09-06T05:41:27.166Z,12.60
2022-09-06T05:43:54.201Z,12.70
2022-09-06T05:46:21.453Z,13.00
2022-09-06T05:49:04.948Z,12.83
2022-09-06T05:51:32.885Z,13.33
2022-09-06T05:54:00.044Z,12.33
2022-09-06T05:56:27.174Z,12.37
2022-09-06T05:58:54.293Z,11.80
2022-09-06T06:01:23.548Z,12.97
2022-09-06T06:04:02.351Z,11.87
2022-09-06T06:06:32.877Z,12.27
2022-09-06T06:09:02.352Z,12.47
2022-09-06T06:11:31.271Z,12.07
2022-09-06T06:13:59.169Z,12.20
2022-09-06T06:16:26.297Z,11.87
2022-09-06T06:18:53.240Z,12.00
2022-09-06T06:21:21.742Z,12.23
2022-09-06T06:23:53.583Z,11.87
2022-09-06T06:26:21.050Z,11.53
2022-09-06T06:28:48.933Z,12.13
2022-09-06T06:31:16.263Z,12.17
2022-09-06T06:33:44.393Z,11.10
2022-09-06T06:36:14.422Z,10.23
2022-09-06T06:38:44.413Z,10.67
2022-09-06T06:41:13.973Z,10.60
2022-09-06T06:43:41.284Z,10.00
2022-09-06T06:46:16.845Z,9.73
2022-09-06T06:48:45.491Z,9.27
2022-09-06T06:51:18.107Z,9.20
2022-09-06T06:53:47.566Z,9.43
2022-09-06T06:56:22.499Z,8.67
2022-09-06T06:58:52.646Z,8.43
2022-09-06T07:01:21.338Z,8.30
2022-09-06T07:03:49.326Z,8.80
2022-09-06T07:06:17.722Z,9.07
2022-09-06T07:08:45.640Z,7.53
2022-09-06T07:11:14.556Z,7.73
2022-09-06T07:13:42.042Z,8.10
2022-09-06T07:16:11.628Z,8.27
2022-09-06T07:18:42.251Z,7.90
2022-09-06T07:24:08.749Z,7.27
2022-09-06T07:26:39.856Z,7.20
2022-09-06T07:29:07.988Z,7.23
2022-09-06T07:34:25.445Z,7.00
2022-09-06T07:36:53.774Z,7.00
2022-09-06T07:39:20.993Z,6.60
2022-09-06T07:41:47.969Z,6.80
2022-09-06T07:44:15.548Z,6.80
2022-09-06T07:46:42.783Z,6.57
2022-09-06T07:49:09.756Z,7.30
2022-09-06T07:51:36.739Z,6.80
2022-09-06T07:54:28.676Z,6.50
2022-09-06T07:56:51.290Z,6.83
2022-09-06T07:59:18.266Z,6.60
2022-09-06T08:01:45.443Z,6.67
2022-09-06T08:04:15.660Z,6.63
2022-09-06T08:09:36.418Z,5.43
2022-09-06T08:12:07.026Z,6.23
2022-09-06T08:14:34.619Z,5.70
2022-09-06T08:17:02.727Z,6.03
2022-09-06T08:19:29.695Z,5.27
2022-09-06T08:21:57.967Z,4.73
2022-09-06T08:24:26.108Z,5.30
2022-09-06T08:26:53.051Z,4.57
2022-09-06T08:29:20.183Z,5.33
2022-09-06T08:31:47.671Z,4.70
2022-09-06T08:34:15.363Z,4.37
2022-09-06T08:36:43.135Z,4.93
2022-09-06T08:39:10.586Z,4.67
2022-09-06T08:41:54.948Z,4.33
2022-09-06T08:47:22.937Z,3.90
2022-09-06T08:49:54.817Z,3.30
2022-09-06T08:52:34.335Z,3.73
2022-09-06T08:55:35.458Z,8.52
2022-09-06T08:58:08.366Z,4.85
2022-09-06T09:00:37.284Z,6.30
2022-09-06T09:03:16.806Z,6.47
2022-09-06T09:05:47.323Z,10.35
2022-09-06T09:08:23.788Z,3.28
2022-09-06T09:10:59.330Z,3.47
2022-09-06T09:13:47.452Z,3.22
2022-09-06T09:16:15.786Z,3.25
2022-09-06T09:18:52.640Z,3.08
2022-09-06T09:21:30.128Z,3.05
2022-09-06T09:24:18.064Z,2.92
2022-09-06T09:26:53.516Z,3.67
2022-09-06T09:29:24.115Z,3.08
2022-09-06T09:31:55.695Z,3.38
2022-09-06T09:34:31.163Z,3.42
2022-09-06T09:37:46.425Z,3.05
2022-09-06T09:40:39.938Z,3.10
2022-09-06T09:43:22.201Z,2.70
2022-09-06T09:46:10.943Z,2.50
2022-09-06T09:48:38.671Z,2.30
2022-09-06T09:51:27.711Z,5.18
2022-09-06T09:54:00.327Z,8.15
2022-09-06T09:56:40.818Z,10.73
2022-09-06T09:59:26.717Z,4.15
2022-09-06T10:02:02.209Z,2.85
2022-09-06T10:04:45.717Z,2.67
2022-09-06T10:07:22.931Z,1.92
2022-09-06T10:09:58.533Z,2.53
2022-09-06T10:12:34.857Z,1.60
2022-09-06T10:15:03.725Z,2.00
2022-09-06T10:17:35.942Z,1.80
2022-09-06T10:20:08.584Z,2.20
2022-09-06T10:22:58.975Z,2.30
2022-09-06T10:25:49.075Z,2.15
2022-09-06T10:28:29.672Z,2.40
2022-09-06T10:31:13.009Z,2.30
2022-09-06T10:34:02.115Z,2.00
2022-09-06T10:36:37.734Z,2.58
2022-09-06T10:39:31.971Z,2.50
2022-09-06T10:42:10.029Z,3.28
2022-09-06T10:45:12.307Z,2.47
2022-09-06T10:48:04.849Z,2.40
2022-09-06T10:51:21.285Z,2.00
2022-09-06T10:54:17.847Z,2.10
2022-09-06T10:56:50.876Z,2.00
2022-09-06T10:59:56.185Z,1.95
2022-09-06T11:06:09.613Z,2.65
2022-09-06T11:09:08.609Z,2.92
2022-09-06T11:11:46.289Z,2.55
2022-09-06T11:14:15.052Z,2.97
2022-09-06T11:17:05.139Z,2.10
2022-09-06T11:19:47.085Z,2.47
2022-09-06T11:22:37.794Z,2.33
2022-09-06T11:25:30.358Z,3.05
2022-09-06T11:28:01.197Z,2.28
2022-09-06T11:30:30.318Z,1.92
2022-09-06T11:33:24.683Z,2.70
2022-09-06T11:35:52.968Z,1.80
2022-09-06T11:38:26.733Z,1.88
2022-09-06T11:41:06.311Z,2.22
2022-09-06T11:43:49.523Z,1.80
2022-09-06T11:46:34.838Z,1.83
2022-09-06T11:49:24.899Z,2.15
2022-09-06T11:51:51.823Z,2.13
2022-09-06T11:54:18.755Z,2.42
2022-09-06T11:57:07.186Z,1.90
2022-09-06T11:59:48.075Z,1.95
2022-09-06T12:02:38.464Z,1.90
2022-09-06T12:05:07.535Z,2.47
2022-09-06T12:07:58.735Z,2.47
2022-09-06T12:10:31.836Z,2.08
2022-09-06T12:12:59.323Z,2.47
2022-09-06T12:15:51.845Z,2.47
2022-09-06T12:18:43.946Z,2.50
2022-09-06T12:21:41.833Z,2.30
2022-09-06T12:24:33.618Z,3.00
2022-09-06T12:27:27.005Z,2.47
2022-09-06T12:30:21.279Z,3.50
2022-09-06T12:32:50.198Z,2.70
2022-09-06T12:38:16.011Z,2.85
2022-09-06T12:40:48.799Z,3.50
2022-09-06T12:43:17.520Z,2.78
2022-09-06T12:45:50.838Z,2.70
2022-09-06T12:48:58.928Z,2.38
2022-09-06T12:51:26.345Z,2.40
2022-09-06T12:53:54.997Z,2.63
2022-09-06T12:56:24.252Z,2.65
2022-09-06T12:58:51.319Z,2.45
2022-09-06T13:01:33.708Z,2.92
2022-09-06T13:04:29.722Z,2.60
2022-09-06T13:06:58.245Z,2.85
2022-09-06T13:09:27.335Z,3.22
2022-09-06T13:11:57.951Z,2.58
2022-09-06T13:14:29.212Z,2.95
2022-09-06T13:17:00.008Z,2.90
2022-09-06T13:19:39.232Z,2.83
2022-09-06T13:22:08.864Z,2.65
2022-09-06T13:24:35.744Z,3.25
2022-09-06T13:27:34.788Z,3.22
2022-09-06T13:30:09.223Z,3.05
2022-09-06T13:32:45.677Z,2.78
2022-09-06T13:35:26.957Z,3.45
2022-09-06T13:37:53.913Z,2.80
2022-09-06T13:41:06.469Z,2.70
2022-09-06T13:43:28.912Z,3.00
2022-09-06T13:46:06.378Z,3.70
2022-09-06T13:48:33.819Z,2.83
2022-09-06T13:51:00.981Z,3.40
2022-09-06T13:53:28.215Z,4.45
2022-09-06T13:55:55.167Z,3.50
2022-09-06T13:58:22.446Z,3.13
2022-09-06T14:00:49.668Z,3.05
2022-09-06T14:03:24.769Z,3.15
2022-09-06T14:05:52.038Z,3.33
2022-09-06T14:08:19.036Z,3.25
2022-09-06T14:10:48.632Z,3.15
2022-09-06T14:13:16.789Z,3.13
2022-09-06T14:15:45.367Z,3.50
2022-09-06T14:18:14.569Z,3.53
2022-09-06T14:20:42.656Z,3.28
2022-09-06T14:23:09.713Z,3.17
2022-09-06T14:25:37.629Z,3.13
2022-09-06T14:28:05.533Z,3.53
2022-09-06T14:30:32.542Z,3.67
2022-09-06T14:32:59.488Z,3.30
2022-09-06T14:35:27.724Z,3.45
2022-09-06T14:37:54.658Z,3.42
2022-09-06T14:40:21.585Z,2.85
2022-09-06T14:42:50.570Z,3.38
2022-09-06T14:45:18.567Z,3.42
2022-09-06T14:47:45.719Z,3.10
2022-09-06T14:50:12.745Z,2.88
2022-09-06T14:52:39.635Z,2.95
2022-09-06T14:55:06.948Z,3.00
2022-09-06T14:57:33.925Z,3.30
2022-09-06T15:00:01.766Z,2.53
2022-09-06T15:02:29.160Z,3.40
2022-09-06T15:04:56.176Z,3.08
2022-09-06T15:07:23.413Z,3.53
2022-09-06T15:09:51.184Z,3.00
2022-09-06T15:12:18.231Z,3.35
2022-09-06T15:14:45.218Z,2.83
2022-09-06T15:17:13.200Z,3.00
2022-09-06T15:19:40.195Z,2.80
2022-09-06T15:22:07.382Z,3.30
2022-09-06T15:24:34.696Z,2.83
2022-09-06T15:27:01.646Z,2.72
2022-09-06T15:29:28.945Z,3.15
2022-09-06T15:31:56.064Z,3.78
2022-09-06T15:34:25.528Z,3.00
2022-09-06T15:36:53.599Z,2.95
2022-09-06T15:39:21.111Z,3.20
2022-09-06T15:41:50.399Z,3.35
2022-09-06T15:44:19.581Z,3.15
2022-09-06T15:46:52.206Z,3.03
2022-09-06T15:49:33.975Z,2.92
2022-09-06T15:52:02.657Z,3.70
2022-09-06T15:54:49.517Z,3.70
2022-09-06T15:57:17.486Z,2.80
2022-09-06T15:59:44.906Z,3.25
2022-09-06T16:02:12.484Z,3.45
2022-09-06T16:04:39.679Z,3.40
2022-09-06T16:07:07.331Z,3.10
2022-09-06T16:09:34.284Z,2.97
2022-09-06T16:12:01.208Z,3.28
2022-09-06T16:14:29.139Z,3.20
2022-09-06T16:16:57.468Z,3.40
2022-09-06T16:19:26.157Z,3.17
2022-09-06T16:21:53.153Z,3.50
2022-09-06T16:24:21.440Z,2.90
2022-09-06T16:26:48.697Z,2.70
2022-09-06T16:29:18.194Z,3.13
2022-09-06T16:31:45.549Z,2.97
2022-09-06T16:34:13.446Z,3.40
2022-09-06T16:36:40.854Z,3.22
2022-09-06T16:39:08.777Z,3.00
2022-09-06T16:41:40.759Z,3.60
2022-09-06T16:44:09.157Z,3.00
2022-09-06T16:46:36.304Z,3.30
2022-09-06T16:49:04.534Z,3.80
2022-09-06T16:51:32.413Z,3.42
2022-09-06T16:54:00.223Z,3.38
2022-09-06T16:56:33.427Z,3.25
2022-09-06T16:59:02.568Z,2.75
2022-09-06T17:01:31.329Z,3.05
2022-09-06T17:03:59.578Z,3.17
2022-09-06T17:06:26.675Z,3.63
2022-09-06T17:08:55.605Z,3.15
2022-09-06T17:11:23.399Z,3.13
2022-09-06T17:13:52.605Z,3.63
2022-09-06T17:16:39.685Z,3.17
2022-09-06T17:19:07.600Z,3.47
2022-09-06T17:21:36.401Z,3.43
2022-09-06T17:24:04.793Z,3.90
2022-09-06T17:26:37.632Z,3.97
2022-09-06T17:29:05.965Z,4.13
2022-09-06T17:31:33.364Z,3.97
2022-09-06T17:34:00.424Z,4.32
2022-09-06T17:36:30.658Z,4.57
2022-09-06T17:39:18.610Z,4.47
2022-09-06T17:41:53.428Z,4.47
2022-09-06T17:44:23.482Z,4.20
2022-09-06T17:47:11.997Z,4.27
2022-09-06T17:49:37.658Z,3.67
2022-09-06T17:52:04.770Z,3.70
2022-09-06T17:54:31.950Z,3.87
2022-09-06T17:56:58.937Z,4.30
2022-09-06T17:59:25.892Z,4.50
2022-09-06T18:01:52.951Z,3.80
2022-09-06T18:04:20.869Z,4.03
2022-09-06T18:06:48.085Z,4.10
2022-09-06T18:09:17.599Z,4.67
2022-09-06T18:11:46.857Z,3.77
2022-09-06T18:14:16.846Z,3.53
2022-09-06T18:16:49.358Z,3.50
2022-09-06T18:19:17.611Z,3.80
2022-09-06T18:21:44.872Z,3.10
2022-09-06T18:24:15.586Z,3.60
2022-09-06T18:26:43.186Z,3.47
2022-09-06T18:29:14.984Z,3.90
2022-09-06T18:31:42.242Z,3.47
2022-09-06T18:34:09.464Z,3.37
2022-09-06T18:36:38.048Z,3.57
2022-09-06T18:39:05.578Z,3.47
2022-09-06T18:41:52.113Z,3.83
2022-09-06T18:44:19.161Z,3.63
2022-09-06T18:46:46.143Z,3.73
2022-09-06T18:49:15.215Z,3.73
2022-09-06T18:51:43.051Z,4.13
2022-09-06T18:54:11.243Z,3.97
2022-09-06T18:56:38.696Z,4.40
2022-09-06T18:59:07.130Z,3.40
2022-09-06T19:01:35.131Z,4.23
2022-09-06T19:04:04.573Z,4.40
2022-09-06T19:06:33.114Z,4.20
2022-09-06T19:09:02.001Z,4.40
2022-09-06T19:11:29.247Z,5.60
2022-09-06T19:13:57.489Z,4.30
2022-09-06T19:16:26.140Z,4.50
2022-09-06T19:18:56.105Z,4.57
2022-09-06T19:21:27.833Z,5.10
2022-09-06T19:24:06.976Z,4.37
2022-09-06T19:26:37.671Z,2.87
2022-09-06T19:29:07.395Z,3.20
2022-09-06T19:31:36.593Z,3.77
2022-09-06T19:34:04.219Z,3.73
2022-09-06T19:36:32.080Z,4.20
2022-09-06T19:39:06.559Z,2.90
2022-09-06T19:41:40.045Z,2.83
2022-09-06T19:44:08.823Z,3.50
2022-09-06T19:46:36.546Z,3.57
2022-09-06T19:49:05.268Z,2.90
2022-09-06T19:51:33.235Z,3.00
2022-09-06T19:54:00.535Z,2.80
2022-09-06T19:56:37.834Z,2.30
2022-09-06T19:59:07.265Z,1.73
2022-09-06T20:01:36.276Z,1.73
2022-09-06T20:04:07.034Z,1.93
2022-09-06T20:06:34.646Z,1.80
2022-09-06T20:09:03.477Z,1.93
2022-09-06T20:11:32.837Z,1.83
2022-09-06T20:14:00.923Z,2.33
2022-09-06T20:16:28.529Z,1.50
2022-09-06T20:18:56.467Z,1.60
2022-09-06T20:21:23.405Z,1.30
2022-09-06T20:23:51.997Z,1.67
2022-09-06T20:26:19.894Z,1.30
2022-09-06T20:28:47.559Z,1.70
2022-09-06T20:31:16.725Z,1.73
2022-09-06T20:33:49.449Z,2.00
2022-09-06T20:36:18.316Z,1.90
2022-09-06T20:38:46.611Z,1.93
2022-09-06T20:41:19.389Z,1.80
2022-09-06T20:43:54.701Z,1.80
2022-09-06T20:46:23.948Z,1.30
2022-09-06T20:48:52.058Z,1.27
2022-09-06T20:51:23.655Z,2.27
2022-09-06T20:53:56.138Z,2.30
2022-09-06T20:56:29.355Z,1.83
2022-09-06T20:58:59.557Z,2.23
2022-09-06T21:01:28.806Z,1.80
2022-09-06T21:03:58.237Z,2.70
2022-09-06T21:06:27.113Z,3.60
2022-09-06T21:08:54.377Z,3.00
2022-09-06T21:11:21.429Z,3.13
2022-09-06T21:13:51.212Z,3.47
2022-09-06T21:16:23.920Z,3.10
2022-09-06T21:18:56.459Z,2.53
2022-09-06T21:21:25.428Z,2.47
2022-09-06T21:23:52.987Z,2.60
2022-09-06T21:26:21.843Z,1.57
2022-09-06T21:28:49.499Z,2.33
2022-09-06T21:31:22.439Z,1.97
2022-09-06T21:33:54.700Z,2.60
2022-09-06T21:36:47.872Z,2.53
2022-09-06T21:39:15.300Z,2.73
2022-09-06T21:41:43.626Z,3.10
2022-09-06T21:44:10.682Z,2.50
2022-09-06T21:46:39.541Z,1.97
2022-09-06T21:49:08.967Z,2.37
2022-09-06T21:51:36.135Z,2.03
2022-09-06T21:54:04.462Z,2.53
2022-09-06T21:56:34.219Z,1.93
2022-09-06T21:59:01.660Z,1.87
2022-09-06T22:01:31.929Z,1.90
2022-09-06T22:03:59.900Z,2.23
2022-09-06T22:06:29.300Z,2.07
2022-09-06T22:09:01.242Z,1.83
2022-09-06T22:11:31.220Z,1.60
2022-09-06T22:14:04.056Z,1.90
2022-09-06T22:16:33.385Z,2.37
2022-09-06T22:19:00.903Z,1.80
2022-09-06T22:21:27.814Z,2.37
2022-09-06T22:24:06.843Z,2.90
2022-09-06T22:26:36.651Z,1.80
2022-09-06T22:29:06.959Z,1.70
2022-09-06T22:31:35.293Z,1.80
2022-09-06T22:34:03.037Z,1.97
2022-09-06T22:36:30.284Z,1.90
2022-09-06T22:38:57.943Z,1.83
2022-09-06T22:41:30.275Z,2.23
2022-09-06T22:43:59.590Z,2.03
2022-09-06T22:46:26.993Z,2.00
2022-09-06T22:48:54.309Z,2.10
2022-09-06T22:51:21.761Z,2.13
2022-09-06T22:53:48.680Z,1.87
2022-09-06T22:56:15.746Z,1.90
2022-09-06T22:58:42.699Z,2.00
2022-09-06T23:01:12.389Z,1.50
2022-09-06T23:03:40.202Z,1.60
2022-09-06T23:06:07.457Z,1.53
2022-09-06T23:08:36.794Z,1.57
2022-09-06T23:11:07.040Z,1.70
2022-09-06T23:13:34.725Z,1.23
2022-09-06T23:16:09.408Z,1.00
2022-09-06T23:18:36.376Z,1.60
2022-09-06T23:21:08.010Z,1.70
2022-09-06T23:23:35.876Z,1.47
2022-09-06T23:26:08.907Z,1.57
2022-09-06T23:28:36.548Z,2.10
2022-09-06T23:31:05.984Z,1.57
2022-09-06T23:33:37.016Z,1.57
2022-09-06T23:36:06.210Z,1.40
2022-09-06T23:38:34.738Z,1.83
2022-09-06T23:41:02.820Z,1.40
2022-09-06T23:43:31.208Z,1.57
2022-09-06T23:45:58.568Z,1.80
2022-09-06T23:48:25.615Z,2.20
2022-09-06T23:50:52.636Z,1.73
2022-09-06T23:53:19.860Z,1.70
2022-09-06T23:55:46.882Z,1.53
2022-09-06T23:58:13.994Z,2.13
